Skip Navigation Links Skip Navigation Links

Current Weather

Nellis Afb, Las Vegas, Nev.

For information only: do not use for flight planning or navigation.
Latest weather
Observation time Thursday, November 21, 2019 1:54 PM PST
Local time Thursday, November 21, 2019 2:30 PM PST
Flight conditions Visual Meteorological Conditions
Winds
Wind direction North (10°)
Wind speed 6 mph
Visibility 10 mi.
Sky condition
Ceiling 8,000 ft. broken clouds
Cloud layer few clouds 5,000 ft.
Cloud layer broken clouds 8,000 ft.
Cloud layer broken clouds 18,000 ft.
Temperature 50°F
Dewpoint 50°F
Altimeter 29.91 in.Hg
Precipitation
Drizzle ended 1:30 PM
Precipitation last hour trace
Derived measurements
Relative humidity 100%
Density altitude 1483 ft.
Sea-level pressure 29.91 in.Hg
Remarks
System requires maintenance.
Automated weather observing station with precipitation discriminator.
METAR KLSV 212154Z 01005KT 10SM FEW050 BKN080 BKN180 10/10 A2991 RMK AO2A DZE30 SLP127 P0000 T01020102 $

Settings

Location code

InnerDrive.Weather 4.0.6770.0 Release CLR 4.0.30319.42000
Copyright ©2018 Inner Drive Technology. All rights reserved. Portions Copyright ©1986-2018 David Braverman.

Find weather

Site navigation


Skip Navigation Links

Place info

Page info

PayPal - The safer, easier way to pay online!

Return home.

Copyright ©2019 Inner Drive Technology. Purveyors of fine, hand-crafted computer software. Page printed 2019-11-21T22:30:48 UTC.